Avon, CO (81620)

1:13 PM MST on December 08, 2016 (GMT -0700)
Whiskey Hill, EagleVail | | Change Station

Elev 7959 ft 39.61 °N, 106.48 °W | Updated 13 minutes ago

Overcast
Overcast
12.4 °F
Feels Like 12 °F
N
0.0
Wind Variable Wind from North
Gusts 0.0 mph

Today
High -- | Low -- °F
--% Chance of Precip.
Yesterday
High -- | Low -- °F
Precip. -- in
Pressure 30.29 in
Visibility 10.0 miles
Clouds Mostly Cloudy 6000 ft
Windchill 12 °F
Dew Point 4 °F
Humidity 69%
Rainfall 0.00 in
Snow Depth Not available.
7:14 AM 4:41 PM
Waxing Gibbous, 66% visible
METAR KEGE 081950Z 00000KT 10SM BKN060 M07/M18 A3029
Pressure 30.29 in
Visibility 10.0 miles
Clouds Mostly Cloudy 6000 ft
Windchill 12 °F
Dew Point 4 °F
Humidity 69%
Rainfall 0.00 in
Snow Depth Not available.
7:14 AM 4:41 PM
Waxing Gibbous, 66% visible
METAR KEGE 081950Z 00000KT 10SM BKN060 M07/M18 A3029

10-Day Weather Forecast

Almanac

Astronomy

Dec. 08, 2016 Rise Set
Actual Time
Civil Twilight
Nautical Twilight
Astronomical Twilight
Moon
Length of Visible Light
Length of Day
Tomorrow will be .
, % of the Moon is Illuminated

Today's Extremes

State Highs State Lows

Community

WunderPhotos

Upload Photos

1,956,277 photos uploaded!

WunderBlog® & News

Nearby

Air Quality

  Air Quality AQ Index Pollutant
Not available.

Snow Depth

Station Depth Elevation

Earthquake Activity

City Distance Mag. Time & Date
Minimum magnitude displayed is 2.5.

Coastal Water Temperatures

Place Temperature

Stations

Nearby Weather Stations

Station Location Temp. Windchill Dew Point Humidity Wind Precip. Elev Updated Type
                   

Watches & Warnings

There are currently no watches in effect.